sensor_id;sensor_type;location;lat;lon;timestamp;P1;durP1;ratioP1;P2;durP2;ratioP2
1471;SDS011;963;42.644;23.336;2024-03-02T00:00:19;28.67;;;16.27;;
1471;SDS011;963;42.644;23.336;2024-03-02T00:02:50;27.87;;;17.80;;
1471;SDS011;963;42.644;23.336;2024-03-02T00:05:20;25.43;;;14.80;;
1471;SDS011;963;42.644;23.336;2024-03-02T00:07:56;25.20;;;15.67;;
1471;SDS011;963;42.644;23.336;2024-03-02T00:10:27;25.67;;;16.80;;
1471;SDS011;963;42.644;23.336;2024-03-02T00:13:02;25.30;;;15.97;;
1471;SDS011;963;42.644;23.336;2024-03-02T00:18:11;27.57;;;17.40;;
1471;SDS011;963;42.644;23.336;2024-03-02T00:20:38;28.43;;;17.27;;
1471;SDS011;963;42.644;23.336;2024-03-02T00:23:05;32.50;;;18.60;;
1471;SDS011;963;42.644;23.336;2024-03-02T00:25:38;28.83;;;18.33;;
1471;SDS011;963;42.644;23.336;2024-03-02T00:28:13;26.27;;;17.30;;
1471;SDS011;963;42.644;23.336;2024-03-02T00:33:16;29.10;;;16.87;;
1471;SDS011;963;42.644;23.336;2024-03-02T00:35:44;31.87;;;18.57;;
1471;SDS011;963;42.644;23.336;2024-03-02T00:38:09;27.33;;;16.90;;
1471;SDS011;963;42.644;23.336;2024-03-02T00:40:35;29.23;;;17.83;;
1471;SDS011;963;42.644;23.336;2024-03-02T00:43:01;29.90;;;17.90;;
1471;SDS011;963;42.644;23.336;2024-03-02T00:45:28;28.60;;;16.53;;
1471;SDS011;963;42.644;23.336;2024-03-02T00:47:53;28.80;;;18.80;;
1471;SDS011;963;42.644;23.336;2024-03-02T00:50:19;27.10;;;16.83;;
1471;SDS011;963;42.644;23.336;2024-03-02T00:52:45;28.33;;;17.33;;
1471;SDS011;963;42.644;23.336;2024-03-02T00:55:13;36.00;;;17.87;;
1471;SDS011;963;42.644;23.336;2024-03-02T00:57:39;30.63;;;19.20;;
1471;SDS011;963;42.644;23.336;2024-03-02T01:00:04;28.63;;;18.20;;
1471;SDS011;963;42.644;23.336;2024-03-02T01:02:34;28.37;;;17.00;;
1471;SDS011;963;42.644;23.336;2024-03-02T01:05:00;31.07;;;18.50;;
1471;SDS011;963;42.644;23.336;2024-03-02T01:07:25;26.07;;;15.17;;
1471;SDS011;963;42.644;23.336;2024-03-02T01:09:51;23.97;;;15.67;;
1471;SDS011;963;42.644;23.336;2024-03-02T01:12:16;26.10;;;17.00;;
1471;SDS011;963;42.644;23.336;2024-03-02T01:14:42;23.40;;;14.33;;
1471;SDS011;963;42.644;23.336;2024-03-02T01:17:07;27.57;;;16.97;;
1471;SDS011;963;42.644;23.336;2024-03-02T01:19:33;26.77;;;15.90;;
1471;SDS011;963;42.644;23.336;2024-03-02T01:21:58;25.10;;;15.83;;
1471;SDS011;963;42.644;23.336;2024-03-02T01:24:24;23.53;;;15.07;;
1471;SDS011;963;42.644;23.336;2024-03-02T01:26:49;24.77;;;16.80;;
1471;SDS011;963;42.644;23.336;2024-03-02T01:29:14;22.90;;;15.67;;
1471;SDS011;963;42.644;23.336;2024-03-02T01:31:40;23.10;;;14.60;;
1471;SDS011;963;42.644;23.336;2024-03-02T01:34:07;20.77;;;13.80;;
1471;SDS011;963;42.644;23.336;2024-03-02T01:36:33;26.20;;;15.57;;
1471;SDS011;963;42.644;23.336;2024-03-02T01:38:58;22.53;;;14.17;;
1471;SDS011;963;42.644;23.336;2024-03-02T01:41:23;27.97;;;14.90;;
1471;SDS011;963;42.644;23.336;2024-03-02T01:43:49;22.93;;;15.13;;
1471;SDS011;963;42.644;23.336;2024-03-02T01:46:14;22.27;;;14.30;;
1471;SDS011;963;42.644;23.336;2024-03-02T01:48:40;21.00;;;13.97;;
1471;SDS011;963;42.644;23.336;2024-03-02T01:51:05;21.30;;;14.37;;
1471;SDS011;963;42.644;23.336;2024-03-02T01:53:31;22.50;;;14.83;;
1471;SDS011;963;42.644;23.336;2024-03-02T01:55:57;22.40;;;13.57;;
1471;SDS011;963;42.644;23.336;2024-03-02T01:58:22;21.27;;;13.37;;
1471;SDS011;963;42.644;23.336;2024-03-02T02:00:48;25.00;;;14.63;;
1471;SDS011;963;42.644;23.336;2024-03-02T02:03:14;22.40;;;14.57;;
1471;SDS011;963;42.644;23.336;2024-03-02T02:05:39;22.20;;;14.60;;
1471;SDS011;963;42.644;23.336;2024-03-02T02:08:07;21.70;;;15.13;;
1471;SDS011;963;42.644;23.336;2024-03-02T02:10:32;23.23;;;14.60;;
1471;SDS011;963;42.644;23.336;2024-03-02T02:12:58;19.97;;;13.40;;
1471;SDS011;963;42.644;23.336;2024-03-02T02:15:29;22.17;;;14.63;;
1471;SDS011;963;42.644;23.336;2024-03-02T02:17:56;21.30;;;14.17;;
1471;SDS011;963;42.644;23.336;2024-03-02T02:20:22;22.60;;;15.90;;
1471;SDS011;963;42.644;23.336;2024-03-02T02:22:57;25.10;;;16.60;;
1471;SDS011;963;42.644;23.336;2024-03-02T02:25:23;24.83;;;15.30;;
1471;SDS011;963;42.644;23.336;2024-03-02T02:27:48;25.57;;;14.43;;
1471;SDS011;963;42.644;23.336;2024-03-02T02:30:18;26.33;;;15.30;;
1471;SDS011;963;42.644;23.336;2024-03-02T02:32:47;26.50;;;16.37;;
1471;SDS011;963;42.644;23.336;2024-03-02T02:35:13;31.43;;;17.17;;
1471;SDS011;963;42.644;23.336;2024-03-02T02:37:38;25.30;;;16.33;;
1471;SDS011;963;42.644;23.336;2024-03-02T02:40:04;27.10;;;17.27;;
1471;SDS011;963;42.644;23.336;2024-03-02T02:42:30;25.00;;;16.07;;
1471;SDS011;963;42.644;23.336;2024-03-02T02:44:55;24.30;;;16.37;;
1471;SDS011;963;42.644;23.336;2024-03-02T02:47:20;24.83;;;16.07;;
1471;SDS011;963;42.644;23.336;2024-03-02T02:49:46;28.80;;;17.30;;
1471;SDS011;963;42.644;23.336;2024-03-02T02:52:11;25.60;;;17.10;;
1471;SDS011;963;42.644;23.336;2024-03-02T02:54:37;29.23;;;17.50;;
1471;SDS011;963;42.644;23.336;2024-03-02T02:57:03;26.03;;;16.97;;
1471;SDS011;963;42.644;23.336;2024-03-02T02:59:28;28.43;;;19.33;;
1471;SDS011;963;42.644;23.336;2024-03-02T03:01:53;29.47;;;17.07;;
1471;SDS011;963;42.644;23.336;2024-03-02T03:04:19;28.27;;;16.47;;
1471;SDS011;963;42.644;23.336;2024-03-02T03:06:44;27.70;;;16.83;;
1471;SDS011;963;42.644;23.336;2024-03-02T03:09:11;26.97;;;16.97;;
1471;SDS011;963;42.644;23.336;2024-03-02T03:11:36;30.27;;;17.80;;
1471;SDS011;963;42.644;23.336;2024-03-02T03:14:02;26.87;;;16.53;;
1471;SDS011;963;42.644;23.336;2024-03-02T03:16:28;28.40;;;17.60;;
1471;SDS011;963;42.644;23.336;2024-03-02T03:18:53;26.90;;;16.43;;
1471;SDS011;963;42.644;23.336;2024-03-02T03:21:18;24.80;;;16.20;;
1471;SDS011;963;42.644;23.336;2024-03-02T03:23:44;27.80;;;17.90;;
1471;SDS011;963;42.644;23.336;2024-03-02T03:26:10;27.60;;;17.20;;
1471;SDS011;963;42.644;23.336;2024-03-02T03:28:35;28.40;;;16.80;;
1471;SDS011;963;42.644;23.336;2024-03-02T03:31:01;29.47;;;18.40;;
1471;SDS011;963;42.644;23.336;2024-03-02T03:33:27;23.43;;;15.47;;
1471;SDS011;963;42.644;23.336;2024-03-02T03:35:52;26.63;;;16.87;;
1471;SDS011;963;42.644;23.336;2024-03-02T03:38:18;25.57;;;16.70;;
1471;SDS011;963;42.644;23.336;2024-03-02T03:40:44;29.60;;;18.30;;
1471;SDS011;963;42.644;23.336;2024-03-02T03:43:10;24.90;;;16.83;;
1471;SDS011;963;42.644;23.336;2024-03-02T03:45:35;24.20;;;15.57;;
1471;SDS011;963;42.644;23.336;2024-03-02T03:48:01;26.00;;;16.70;;
1471;SDS011;963;42.644;23.336;2024-03-02T03:50:27;26.53;;;15.50;;
1471;SDS011;963;42.644;23.336;2024-03-02T03:52:52;26.50;;;16.17;;
1471;SDS011;963;42.644;23.336;2024-03-02T03:55:18;25.20;;;16.03;;
1471;SDS011;963;42.644;23.336;2024-03-02T03:57:43;22.13;;;14.93;;
1471;SDS011;963;42.644;23.336;2024-03-02T04:00:08;23.73;;;14.80;;
1471;SDS011;963;42.644;23.336;2024-03-02T04:02:35;24.23;;;17.53;;
1471;SDS011;963;42.644;23.336;2024-03-02T04:05:01;27.20;;;16.87;;
1471;SDS011;963;42.644;23.336;2024-03-02T04:07:30;27.67;;;16.47;;
1471;SDS011;963;42.644;23.336;2024-03-02T04:09:55;25.00;;;17.50;;
1471;SDS011;963;42.644;23.336;2024-03-02T04:12:21;25.10;;;16.40;;
1471;SDS011;963;42.644;23.336;2024-03-02T04:14:47;24.90;;;16.50;;
1471;SDS011;963;42.644;23.336;2024-03-02T04:17:12;28.33;;;16.70;;
1471;SDS011;963;42.644;23.336;2024-03-02T04:19:38;29.80;;;20.47;;
1471;SDS011;963;42.644;23.336;2024-03-02T04:22:04;30.07;;;19.70;;
1471;SDS011;963;42.644;23.336;2024-03-02T04:24:29;27.80;;;19.23;;
1471;SDS011;963;42.644;23.336;2024-03-02T04:26:55;29.30;;;19.47;;
1471;SDS011;963;42.644;23.336;2024-03-02T04:29:20;32.33;;;19.53;;
1471;SDS011;963;42.644;23.336;2024-03-02T04:31:46;31.00;;;19.10;;
1471;SDS011;963;42.644;23.336;2024-03-02T04:34:11;29.37;;;17.13;;
1471;SDS011;963;42.644;23.336;2024-03-02T04:36:36;28.13;;;17.20;;
1471;SDS011;963;42.644;23.336;2024-03-02T04:39:02;28.97;;;17.10;;
1471;SDS011;963;42.644;23.336;2024-03-02T04:41:27;26.30;;;16.83;;
1471;SDS011;963;42.644;23.336;2024-03-02T04:43:53;25.57;;;16.77;;
1471;SDS011;963;42.644;23.336;2024-03-02T04:46:18;27.33;;;17.17;;
1471;SDS011;963;42.644;23.336;2024-03-02T04:48:43;28.90;;;17.53;;
1471;SDS011;963;42.644;23.336;2024-03-02T04:51:09;26.37;;;16.87;;
1471;SDS011;963;42.644;23.336;2024-03-02T04:53:35;29.53;;;18.80;;
1471;SDS011;963;42.644;23.336;2024-03-02T04:56:01;29.97;;;17.87;;
1471;SDS011;963;42.644;23.336;2024-03-02T04:58:48;31.27;;;19.17;;
1471;SDS011;963;42.644;23.336;2024-03-02T05:01:14;27.70;;;17.17;;
1471;SDS011;963;42.644;23.336;2024-03-02T05:03:41;27.43;;;15.60;;
1471;SDS011;963;42.644;23.336;2024-03-02T05:06:06;30.50;;;17.27;;
1471;SDS011;963;42.644;23.336;2024-03-02T05:08:33;30.00;;;17.10;;
1471;SDS011;963;42.644;23.336;2024-03-02T05:10:59;29.13;;;17.90;;
1471;SDS011;963;42.644;23.336;2024-03-02T05:13:44;31.13;;;18.00;;
1471;SDS011;963;42.644;23.336;2024-03-02T05:16:09;24.47;;;15.93;;
1471;SDS011;963;42.644;23.336;2024-03-02T05:18:35;24.70;;;17.37;;
1471;SDS011;963;42.644;23.336;2024-03-02T05:21:03;29.97;;;16.70;;
1471;SDS011;963;42.644;23.336;2024-03-02T05:23:28;29.20;;;17.30;;
1471;SDS011;963;42.644;23.336;2024-03-02T05:25:54;23.47;;;17.23;;
1471;SDS011;963;42.644;23.336;2024-03-02T05:28:19;30.00;;;17.83;;
1471;SDS011;963;42.644;23.336;2024-03-02T05:30:44;27.50;;;17.13;;
1471;SDS011;963;42.644;23.336;2024-03-02T05:33:10;28.00;;;16.60;;
1471;SDS011;963;42.644;23.336;2024-03-02T05:35:35;27.97;;;17.87;;
1471;SDS011;963;42.644;23.336;2024-03-02T05:38:00;25.90;;;18.33;;
1471;SDS011;963;42.644;23.336;2024-03-02T05:40:26;31.60;;;19.30;;
1471;SDS011;963;42.644;23.336;2024-03-02T05:42:51;35.70;;;20.63;;
1471;SDS011;963;42.644;23.336;2024-03-02T05:45:16;30.40;;;19.53;;
1471;SDS011;963;42.644;23.336;2024-03-02T05:47:42;35.23;;;20.60;;
1471;SDS011;963;42.644;23.336;2024-03-02T05:50:07;32.40;;;21.13;;
1471;SDS011;963;42.644;23.336;2024-03-02T05:52:33;34.67;;;22.23;;
1471;SDS011;963;42.644;23.336;2024-03-02T05:54:58;38.80;;;23.20;;
1471;SDS011;963;42.644;23.336;2024-03-02T05:57:24;36.07;;;22.67;;
1471;SDS011;963;42.644;23.336;2024-03-02T06:00:14;33.93;;;22.50;;
1471;SDS011;963;42.644;23.336;2024-03-02T06:02:42;37.17;;;23.20;;
1471;SDS011;963;42.644;23.336;2024-03-02T06:05:07;38.60;;;23.77;;
1471;SDS011;963;42.644;23.336;2024-03-02T06:07:33;39.50;;;22.20;;
1471;SDS011;963;42.644;23.336;2024-03-02T06:09:58;35.03;;;21.03;;
1471;SDS011;963;42.644;23.336;2024-03-02T06:12:24;31.53;;;20.03;;
1471;SDS011;963;42.644;23.336;2024-03-02T06:14:49;24.63;;;16.00;;
1471;SDS011;963;42.644;23.336;2024-03-02T06:17:14;28.60;;;15.87;;
1471;SDS011;963;42.644;23.336;2024-03-02T06:19:40;27.43;;;16.90;;
1471;SDS011;963;42.644;23.336;2024-03-02T06:22:05;26.10;;;17.00;;
1471;SDS011;963;42.644;23.336;2024-03-02T06:24:31;24.90;;;15.83;;
1471;SDS011;963;42.644;23.336;2024-03-02T06:26:56;27.20;;;16.00;;
1471;SDS011;963;42.644;23.336;2024-03-02T06:29:21;25.73;;;16.00;;
1471;SDS011;963;42.644;23.336;2024-03-02T06:31:47;28.83;;;15.67;;
1471;SDS011;963;42.644;23.336;2024-03-02T06:34:12;27.93;;;16.60;;
1471;SDS011;963;42.644;23.336;2024-03-02T06:36:38;30.47;;;18.50;;
1471;SDS011;963;42.644;23.336;2024-03-02T06:39:03;28.67;;;18.43;;
1471;SDS011;963;42.644;23.336;2024-03-02T06:41:29;27.33;;;18.00;;
1471;SDS011;963;42.644;23.336;2024-03-02T06:43:54;28.17;;;19.40;;
1471;SDS011;963;42.644;23.336;2024-03-02T06:46:24;26.73;;;17.70;;
1471;SDS011;963;42.644;23.336;2024-03-02T06:48:50;26.97;;;16.93;;
1471;SDS011;963;42.644;23.336;2024-03-02T06:51:16;26.57;;;17.77;;
1471;SDS011;963;42.644;23.336;2024-03-02T06:53:41;29.53;;;19.10;;
1471;SDS011;963;42.644;23.336;2024-03-02T06:56:07;26.23;;;17.50;;
1471;SDS011;963;42.644;23.336;2024-03-02T06:58:33;26.33;;;17.17;;
1471;SDS011;963;42.644;23.336;2024-03-02T07:00:58;27.00;;;18.00;;
1471;SDS011;963;42.644;23.336;2024-03-02T07:03:25;29.83;;;18.20;;
1471;SDS011;963;42.644;23.336;2024-03-02T07:05:50;27.57;;;17.17;;
1471;SDS011;963;42.644;23.336;2024-03-02T07:08:16;25.80;;;16.90;;
1471;SDS011;963;42.644;23.336;2024-03-02T07:10:41;29.60;;;17.67;;
1471;SDS011;963;42.644;23.336;2024-03-02T07:13:07;28.20;;;18.40;;
1471;SDS011;963;42.644;23.336;2024-03-02T07:15:32;25.50;;;16.80;;
1471;SDS011;963;42.644;23.336;2024-03-02T07:18:16;27.80;;;16.70;;
1471;SDS011;963;42.644;23.336;2024-03-02T07:20:42;29.60;;;17.30;;
1471;SDS011;963;42.644;23.336;2024-03-02T07:23:07;27.67;;;17.60;;
1471;SDS011;963;42.644;23.336;2024-03-02T07:25:34;27.37;;;15.60;;
1471;SDS011;963;42.644;23.336;2024-03-02T07:27:59;26.50;;;16.63;;
1471;SDS011;963;42.644;23.336;2024-03-02T07:30:25;26.73;;;16.80;;
1471;SDS011;963;42.644;23.336;2024-03-02T07:32:50;24.00;;;16.23;;
1471;SDS011;963;42.644;23.336;2024-03-02T07:35:16;21.60;;;15.97;;
1471;SDS011;963;42.644;23.336;2024-03-02T07:37:41;24.40;;;16.80;;
1471;SDS011;963;42.644;23.336;2024-03-02T07:40:07;26.70;;;16.93;;
1471;SDS011;963;42.644;23.336;2024-03-02T07:42:37;26.53;;;16.83;;
1471;SDS011;963;42.644;23.336;2024-03-02T07:45:04;28.73;;;17.47;;
1471;SDS011;963;42.644;23.336;2024-03-02T07:47:30;27.77;;;16.17;;
1471;SDS011;963;42.644;23.336;2024-03-02T07:49:55;32.47;;;19.47;;
1471;SDS011;963;42.644;23.336;2024-03-02T07:52:21;25.53;;;16.47;;
1471;SDS011;963;42.644;23.336;2024-03-02T07:54:46;29.40;;;16.73;;
1471;SDS011;963;42.644;23.336;2024-03-02T07:57:11;26.17;;;17.70;;
1471;SDS011;963;42.644;23.336;2024-03-02T07:59:37;27.80;;;18.40;;
1471;SDS011;963;42.644;23.336;2024-03-02T08:02:03;31.77;;;18.13;;
1471;SDS011;963;42.644;23.336;2024-03-02T08:04:28;30.10;;;18.67;;
1471;SDS011;963;42.644;23.336;2024-03-02T08:06:53;29.20;;;18.40;;
1471;SDS011;963;42.644;23.336;2024-03-02T08:09:19;31.80;;;18.73;;
1471;SDS011;963;42.644;23.336;2024-03-02T08:11:45;25.87;;;16.83;;
1471;SDS011;963;42.644;23.336;2024-03-02T08:14:10;28.60;;;17.97;;
1471;SDS011;963;42.644;23.336;2024-03-02T08:16:35;29.90;;;18.27;;
1471;SDS011;963;42.644;23.336;2024-03-02T08:19:01;35.00;;;20.10;;
1471;SDS011;963;42.644;23.336;2024-03-02T08:21:26;29.10;;;18.07;;
1471;SDS011;963;42.644;23.336;2024-03-02T08:23:55;24.80;;;16.50;;
1471;SDS011;963;42.644;23.336;2024-03-02T08:26:21;28.90;;;17.60;;
1471;SDS011;963;42.644;23.336;2024-03-02T08:28:47;28.43;;;16.77;;
1471;SDS011;963;42.644;23.336;2024-03-02T08:31:12;26.70;;;15.80;;
1471;SDS011;963;42.644;23.336;2024-03-02T08:33:37;26.20;;;17.30;;
1471;SDS011;963;42.644;23.336;2024-03-02T08:36:03;31.70;;;17.73;;
1471;SDS011;963;42.644;23.336;2024-03-02T08:38:29;26.17;;;16.87;;
1471;SDS011;963;42.644;23.336;2024-03-02T08:40:54;31.10;;;16.47;;
1471;SDS011;963;42.644;23.336;2024-03-02T08:43:20;31.33;;;17.00;;
1471;SDS011;963;42.644;23.336;2024-03-02T08:45:47;28.10;;;17.03;;
1471;SDS011;963;42.644;23.336;2024-03-02T08:48:13;34.30;;;19.00;;
1471;SDS011;963;42.644;23.336;2024-03-02T08:50:38;29.53;;;17.90;;
1471;SDS011;963;42.644;23.336;2024-03-02T08:53:04;30.07;;;20.00;;
1471;SDS011;963;42.644;23.336;2024-03-02T08:55:29;33.70;;;17.40;;
1471;SDS011;963;42.644;23.336;2024-03-02T08:57:55;29.47;;;19.00;;
1471;SDS011;963;42.644;23.336;2024-03-02T09:00:21;26.50;;;17.27;;
1471;SDS011;963;42.644;23.336;2024-03-02T09:02:46;25.13;;;16.87;;
1471;SDS011;963;42.644;23.336;2024-03-02T09:05:12;32.50;;;18.63;;
1471;SDS011;963;42.644;23.336;2024-03-02T09:07:37;34.70;;;18.90;;
1471;SDS011;963;42.644;23.336;2024-03-02T09:10:04;29.77;;;18.10;;
1471;SDS011;963;42.644;23.336;2024-03-02T09:12:31;28.43;;;17.87;;
1471;SDS011;963;42.644;23.336;2024-03-02T09:14:56;25.80;;;17.07;;
1471;SDS011;963;42.644;23.336;2024-03-02T09:17:22;25.47;;;16.37;;
1471;SDS011;963;42.644;23.336;2024-03-02T09:19:48;24.43;;;16.93;;
1471;SDS011;963;42.644;23.336;2024-03-02T09:22:13;26.30;;;16.83;;
1471;SDS011;963;42.644;23.336;2024-03-02T09:24:39;26.20;;;15.60;;
1471;SDS011;963;42.644;23.336;2024-03-02T09:27:04;29.23;;;17.87;;
1471;SDS011;963;42.644;23.336;2024-03-02T09:29:30;28.07;;;17.60;;
1471;SDS011;963;42.644;23.336;2024-03-02T09:31:56;23.70;;;15.10;;
1471;SDS011;963;42.644;23.336;2024-03-02T09:34:21;26.03;;;15.90;;
1471;SDS011;963;42.644;23.336;2024-03-02T09:36:47;23.27;;;15.73;;
1471;SDS011;963;42.644;23.336;2024-03-02T09:39:13;22.80;;;15.73;;
1471;SDS011;963;42.644;23.336;2024-03-02T09:41:40;28.70;;;16.70;;
1471;SDS011;963;42.644;23.336;2024-03-02T09:44:05;28.37;;;17.03;;
1471;SDS011;963;42.644;23.336;2024-03-02T09:46:31;26.57;;;16.07;;
1471;SDS011;963;42.644;23.336;2024-03-02T09:48:57;23.13;;;15.73;;
1471;SDS011;963;42.644;23.336;2024-03-02T09:51:22;26.87;;;15.73;;
1471;SDS011;963;42.644;23.336;2024-03-02T09:53:48;26.63;;;16.23;;
1471;SDS011;963;42.644;23.336;2024-03-02T09:56:14;29.33;;;17.27;;
1471;SDS011;963;42.644;23.336;2024-03-02T09:58:41;23.90;;;14.70;;
1471;SDS011;963;42.644;23.336;2024-03-02T10:01:07;20.80;;;14.70;;
1471;SDS011;963;42.644;23.336;2024-03-02T10:03:33;19.50;;;14.03;;
1471;SDS011;963;42.644;23.336;2024-03-02T10:06:18;20.33;;;14.10;;
1471;SDS011;963;42.644;23.336;2024-03-02T10:08:46;28.77;;;15.90;;
1471;SDS011;963;42.644;23.336;2024-03-02T10:11:25;27.17;;;15.90;;
1471;SDS011;963;42.644;23.336;2024-03-02T10:16:33;26.77;;;16.10;;
1471;SDS011;963;42.644;23.336;2024-03-02T10:19:09;27.10;;;17.90;;
1471;SDS011;963;42.644;23.336;2024-03-02T10:21:40;27.47;;;18.00;;
1471;SDS011;963;42.644;23.336;2024-03-02T10:24:08;27.37;;;16.87;;
1471;SDS011;963;42.644;23.336;2024-03-02T10:26:33;30.17;;;17.67;;
1471;SDS011;963;42.644;23.336;2024-03-02T10:28:59;27.30;;;17.87;;
1471;SDS011;963;42.644;23.336;2024-03-02T10:31:24;25.60;;;17.60;;
1471;SDS011;963;42.644;23.336;2024-03-02T10:33:54;30.40;;;18.80;;
1471;SDS011;963;42.644;23.336;2024-03-02T10:36:20;27.87;;;17.30;;
1471;SDS011;963;42.644;23.336;2024-03-02T10:38:45;34.30;;;20.57;;
1471;SDS011;963;42.644;23.336;2024-03-02T10:41:16;31.47;;;18.30;;
1471;SDS011;963;42.644;23.336;2024-03-02T10:43:43;33.10;;;20.80;;
1471;SDS011;963;42.644;23.336;2024-03-02T10:46:09;31.60;;;20.00;;
1471;SDS011;963;42.644;23.336;2024-03-02T10:48:36;25.43;;;17.20;;
1471;SDS011;963;42.644;23.336;2024-03-02T10:51:04;29.33;;;18.13;;
1471;SDS011;963;42.644;23.336;2024-03-02T10:53:30;29.07;;;19.43;;
1471;SDS011;963;42.644;23.336;2024-03-02T10:55:57;29.17;;;19.00;;
1471;SDS011;963;42.644;23.336;2024-03-02T10:58:28;25.60;;;16.57;;
1471;SDS011;963;42.644;23.336;2024-03-02T11:00:58;27.80;;;16.90;;
1471;SDS011;963;42.644;23.336;2024-03-02T11:03:27;27.27;;;15.30;;
1471;SDS011;963;42.644;23.336;2024-03-02T11:06:00;28.97;;;18.00;;
1471;SDS011;963;42.644;23.336;2024-03-02T11:08:27;35.30;;;20.73;;
1471;SDS011;963;42.644;23.336;2024-03-02T11:10:58;31.33;;;17.67;;
1471;SDS011;963;42.644;23.336;2024-03-02T11:13:31;24.37;;;17.00;;
1471;SDS011;963;42.644;23.336;2024-03-02T11:15:59;25.10;;;15.27;;
1471;SDS011;963;42.644;23.336;2024-03-02T11:18:30;25.50;;;16.30;;
1471;SDS011;963;42.644;23.336;2024-03-02T11:20:57;23.67;;;15.80;;
1471;SDS011;963;42.644;23.336;2024-03-02T11:23:33;25.37;;;17.57;;
1471;SDS011;963;42.644;23.336;2024-03-02T11:28:49;19.80;;;14.67;;
1471;SDS011;963;42.644;23.336;2024-03-02T11:31:14;26.63;;;15.93;;
1471;SDS011;963;42.644;23.336;2024-03-02T11:33:39;21.00;;;14.43;;
1471;SDS011;963;42.644;23.336;2024-03-02T11:36:08;24.40;;;16.07;;
1471;SDS011;963;42.644;23.336;2024-03-02T11:38:34;22.20;;;14.13;;
1471;SDS011;963;42.644;23.336;2024-03-02T11:41:01;22.10;;;14.37;;
1471;SDS011;963;42.644;23.336;2024-03-02T11:43:28;25.13;;;15.60;;
1471;SDS011;963;42.644;23.336;2024-03-02T11:46:00;23.10;;;14.53;;
1471;SDS011;963;42.644;23.336;2024-03-02T11:48:29;24.57;;;14.40;;
1471;SDS011;963;42.644;23.336;2024-03-02T11:50:54;21.27;;;14.33;;
1471;SDS011;963;42.644;23.336;2024-03-02T11:53:23;23.47;;;13.53;;
1471;SDS011;963;42.644;23.336;2024-03-02T11:55:49;22.50;;;13.90;;
1471;SDS011;963;42.644;23.336;2024-03-02T11:58:16;22.33;;;15.10;;
1471;SDS011;963;42.644;23.336;2024-03-02T12:00:45;21.40;;;15.33;;
1471;SDS011;963;42.644;23.336;2024-03-02T12:03:12;21.83;;;14.47;;
1471;SDS011;963;42.644;23.336;2024-03-02T12:05:39;22.20;;;16.03;;
1471;SDS011;963;42.644;23.336;2024-03-02T12:08:06;21.97;;;15.30;;
1471;SDS011;963;42.644;23.336;2024-03-02T12:10:32;21.40;;;13.73;;
1471;SDS011;963;42.644;23.336;2024-03-02T12:12:59;18.40;;;12.70;;
1471;SDS011;963;42.644;23.336;2024-03-02T12:15:26;30.20;;;18.30;;
1471;SDS011;963;42.644;23.336;2024-03-02T12:17:55;24.30;;;16.20;;
1471;SDS011;963;42.644;23.336;2024-03-02T12:20:22;17.97;;;12.97;;
1471;SDS011;963;42.644;23.336;2024-03-02T12:22:52;21.63;;;13.83;;
1471;SDS011;963;42.644;23.336;2024-03-02T12:25:18;20.03;;;13.93;;
1471;SDS011;963;42.644;23.336;2024-03-02T12:27:48;20.40;;;12.80;;
1471;SDS011;963;42.644;23.336;2024-03-02T12:30:18;19.70;;;14.27;;
1471;SDS011;963;42.644;23.336;2024-03-02T12:32:44;24.60;;;14.70;;
1471;SDS011;963;42.644;23.336;2024-03-02T12:35:10;19.20;;;13.10;;
1471;SDS011;963;42.644;23.336;2024-03-02T12:37:43;22.47;;;13.23;;
1471;SDS011;963;42.644;23.336;2024-03-02T12:40:15;18.50;;;12.67;;
1471;SDS011;963;42.644;23.336;2024-03-02T12:42:45;15.70;;;11.67;;
1471;SDS011;963;42.644;23.336;2024-03-02T12:45:11;20.13;;;13.87;;
1471;SDS011;963;42.644;23.336;2024-03-02T12:47:38;20.00;;;12.83;;
1471;SDS011;963;42.644;23.336;2024-03-02T12:50:05;19.37;;;13.50;;
1471;SDS011;963;42.644;23.336;2024-03-02T12:52:31;20.23;;;12.90;;
1471;SDS011;963;42.644;23.336;2024-03-02T12:55:00;19.07;;;13.50;;
1471;SDS011;963;42.644;23.336;2024-03-02T12:57:28;19.97;;;13.87;;
1471;SDS011;963;42.644;23.336;2024-03-02T13:00:00;19.50;;;13.50;;
1471;SDS011;963;42.644;23.336;2024-03-02T13:02:39;19.33;;;13.97;;
1471;SDS011;963;42.644;23.336;2024-03-02T13:05:06;20.23;;;14.07;;
1471;SDS011;963;42.644;23.336;2024-03-02T13:07:39;19.30;;;13.83;;
1471;SDS011;963;42.644;23.336;2024-03-02T13:10:06;20.10;;;14.33;;
1471;SDS011;963;42.644;23.336;2024-03-02T13:12:33;20.03;;;14.60;;
1471;SDS011;963;42.644;23.336;2024-03-02T13:15:00;19.83;;;14.47;;
1471;SDS011;963;42.644;23.336;2024-03-02T13:17:27;17.97;;;13.53;;
1471;SDS011;963;42.644;23.336;2024-03-02T13:19:56;19.43;;;14.17;;
1471;SDS011;963;42.644;23.336;2024-03-02T13:22:23;22.83;;;14.70;;
1471;SDS011;963;42.644;23.336;2024-03-02T13:24:49;22.90;;;15.30;;
1471;SDS011;963;42.644;23.336;2024-03-02T13:27:16;21.83;;;14.80;;
1471;SDS011;963;42.644;23.336;2024-03-02T13:29:44;22.50;;;16.20;;
1471;SDS011;963;42.644;23.336;2024-03-02T13:32:10;25.53;;;16.87;;
1471;SDS011;963;42.644;23.336;2024-03-02T13:34:35;21.73;;;15.97;;
1471;SDS011;963;42.644;23.336;2024-03-02T13:37:02;23.77;;;16.77;;
1471;SDS011;963;42.644;23.336;2024-03-02T13:39:28;31.87;;;24.93;;
1471;SDS011;963;42.644;23.336;2024-03-02T13:41:55;30.23;;;20.07;;
1471;SDS011;963;42.644;23.336;2024-03-02T13:44:28;24.97;;;17.23;;
1471;SDS011;963;42.644;23.336;2024-03-02T13:46:53;23.80;;;16.17;;
1471;SDS011;963;42.644;23.336;2024-03-02T13:49:19;21.43;;;14.40;;
1471;SDS011;963;42.644;23.336;2024-03-02T13:51:44;19.50;;;14.80;;
1471;SDS011;963;42.644;23.336;2024-03-02T13:54:10;21.60;;;15.00;;
1471;SDS011;963;42.644;23.336;2024-03-02T13:56:36;22.10;;;15.23;;
1471;SDS011;963;42.644;23.336;2024-03-02T13:59:04;23.60;;;15.63;;
1471;SDS011;963;42.644;23.336;2024-03-02T14:01:30;23.70;;;15.73;;
1471;SDS011;963;42.644;23.336;2024-03-02T14:03:56;20.87;;;14.93;;
1471;SDS011;963;42.644;23.336;2024-03-02T14:06:21;20.43;;;14.53;;
1471;SDS011;963;42.644;23.336;2024-03-02T14:08:47;22.90;;;15.73;;
1471;SDS011;963;42.644;23.336;2024-03-02T14:11:13;25.43;;;16.43;;
1471;SDS011;963;42.644;23.336;2024-03-02T14:13:41;19.90;;;14.57;;
1471;SDS011;963;42.644;23.336;2024-03-02T14:16:06;24.10;;;16.03;;
1471;SDS011;963;42.644;23.336;2024-03-02T14:18:32;27.57;;;17.00;;
1471;SDS011;963;42.644;23.336;2024-03-02T14:20:57;28.00;;;16.93;;
1471;SDS011;963;42.644;23.336;2024-03-02T14:23:23;23.57;;;16.97;;
1471;SDS011;963;42.644;23.336;2024-03-02T14:25:50;26.87;;;18.20;;
1471;SDS011;963;42.644;23.336;2024-03-02T14:28:16;23.80;;;17.33;;
1471;SDS011;963;42.644;23.336;2024-03-02T14:30:41;23.90;;;17.07;;
1471;SDS011;963;42.644;23.336;2024-03-02T14:33:07;25.50;;;17.00;;
1471;SDS011;963;42.644;23.336;2024-03-02T14:35:32;22.80;;;16.57;;
1471;SDS011;963;42.644;23.336;2024-03-02T14:37:58;27.23;;;16.90;;
1471;SDS011;963;42.644;23.336;2024-03-02T14:40:23;29.00;;;16.90;;
1471;SDS011;963;42.644;23.336;2024-03-02T14:42:51;28.13;;;17.77;;
1471;SDS011;963;42.644;23.336;2024-03-02T14:45:17;26.73;;;17.73;;
1471;SDS011;963;42.644;23.336;2024-03-02T14:47:42;25.33;;;17.97;;
1471;SDS011;963;42.644;23.336;2024-03-02T14:50:08;24.77;;;17.27;;
1471;SDS011;963;42.644;23.336;2024-03-02T14:52:34;24.47;;;17.00;;
1471;SDS011;963;42.644;23.336;2024-03-02T14:55:00;26.77;;;16.03;;